To NAV CANADA Home Page Login to a new session Search on AWWS site Disclaimer Vers la page française équivalente Tips FAQ What's new on the site To the Forecasts and Observations / NOTAM section To "File a Flight Plan" website Publications and other links Update of the User's profile FIC Telephone Numbers My Weather Data Folder Route Weather Data Regional Weather Data Local Weather Data To the Forecasts and Observations / NOTAM section
Request Generated 07/10/2020 at 13:07:21 UTC . Weather information available at that time is displayed.

METAR/TAF

KITCHENER/WATERLOO/ON    (show WxCam)

METAR CYKF 101300Z AUTO 20008KT 9SM CLR 27/21 A2987 RMK SLP109 DENSITY ALT 2700FT=
METAR CYKF 101200Z AUTO 15007KT 9SM CLR 25/21 A2988 RMK SLP112 DENSITY ALT 2500FT=
METAR CYKF 101100Z AUTO 06003KT 8SM CLR 21/20 A2989 RMK SLP114 DENSITY ALT 2000FT=

TAF CYKF 100738Z 1008/1020 15007KT P6SM SKC TEMPO 1008/1012 11/2SM BR
FM101700 16012KT P6SM -SHRA BKN060 PROB30 1018/1020 2SM TSRA BR
BKN040CB
RMK FCST BASED ON AUTO OBS. NXT FCST BY 101400Z=

LONDON/ON    

METAR CYXU 101300Z 16008KT 15SM FEW250 27/23 A2985 RMK CI1 CI TR SLP103 DENSITY ALT 2700FT=
METAR CYXU 101200Z 15008KT 15SM FEW250 25/22 A2986 RMK CI1 SLP106 DENSITY ALT 2400FT=
METAR CYXU 101100Z 14005KT 15SM FEW250 23/21 A2986 RMK CI1 SLP106 DENSITY ALT 2200FT=

TAF CYXU 101139Z 1012/1112 VRB03KT P6SM SKC
FM101600 17012KT P6SM BKN050
FM102000 18010KT P6SM -SHRA BKN050 PROB30 1020/1023 2SM TSRA BR
BKN040CB
FM110200 18005KT 3SM -RA BR BKN008 OVC030 PROB30 1103/1106 3/4SM
+SHRA BR OVC002
FM110600 VRB03KT 1SM -RA -DZ BR OVC002
RMK NXT FCST BY 101800Z=

HAMILTON/ON    

METAR CYHM 101300Z 19008KT 15SM FEW250 28/22 A2987 RMK CI1 CI TR SLP110 DENSITY ALT 2500FT=
METAR CYHM 101200Z 16010KT 15SM FEW240 26/22 A2987 RMK CI1 SLP111 DENSITY ALT 2300FT=
METAR CYHM 101100Z 15006KT 15SM FEW240 23/22 A2988 RMK CI1 SLP116 DENSITY ALT 2000FT=

TAF CYHM 101139Z 1012/1112 12008KT P6SM FEW060 SCT240
FM101600 16010KT P6SM BKN050
FM110100 25008KT P6SM -SHRA BKN030
FM110800 25007KT 3SM -SHRA BR BKN008 OVC012
FM111000 VRB03KT 11/2SM -SHRA BR OVC004
RMK NXT FCST BY 101800Z=

TORONTO/LESTER B. PEARSON INTL/ON    

METAR CYYZ 101300Z 11005KT 080V150 15SM FEW250 27/21 A2986 RMK CI1 CI TR SLP108 DENSITY ALT 2200FT=
METAR CYYZ 101200Z 14004KT 100V170 15SM FEW160 FEW220 26/21 A2986 RMK AC1CI1 AC TR CI TR SLP111 DENSITY ALT 2100FT=
METAR CYYZ 101100Z 00000KT 15SM FEW160 FEW220 24/20 A2986 RMK AC1CC1 AC TR SLP111 DENSITY ALT 1900FT=

TAF CYYZ 101139Z 1012/1118 VRB03KT P6SM SCT170
BECMG 1012/1013 13007KT
FM101500 14012KT P6SM BKN050 TEMPO 1018/1023 P6SM VCTS BKN050CB
FM110200 09010KT P6SM -SHRA BKN030
FM111100 29008KT 6SM -SHRA BR BKN015 OVC030
FM111500 30012KT 6SM -RA BR OVC020
RMK NXT FCST BY 101500Z=

TORONTO/BILLY BISHOP TORONTO CITY AIRPORT/ON    (show WxCam)

METAR CYTZ 101300Z AUTO 13005KT 9SM CLR 27/22 A2986 RMK SLP110 DENSITY ALT 1700FT=
METAR CYTZ 101200Z AUTO 06006KT 9SM FEW150 25/23 A2986 RMK SLP111 DENSITY ALT 1500FT=
METAR CYTZ 101100Z AUTO 08006KT 9SM BKN150 24/22 A2986 RMK SLP111 DENSITY ALT 1300FT=

TAF CYTZ 100738Z 1008/1108 VRB03KT P6SM BKN150 TEMPO 1008/1011 2SM BR
FM101200 14008KT P6SM FEW060 FEW240
FM101500 10010KT P6SM BKN060
FM110200 06010KT P6SM -SHRA BKN030
RMK FCST BASED ON AUTO OBS. NXT FCST BY 101400Z=

WIARTON/ON    

METAR CYVV 101300Z 14013KT 15SM FEW030CB FEW150 26/21 A2983 RMK CB1AC1 CB TR CB TOP DIST NW WND ESTD SLP099 DENSITY ALT 2400FT=
METAR CYVV 101200Z CCA 14009KT 15SM FEW030CB FEW080 FEW150 24/20 A2984 RMK CB1ACC1AC1 CB TR ACC TR AC TR CB TOP NW WND ESTD SLP102 D
ENSITY ALT 2100FT=
METAR CYVV 101200Z 14009KT 15SM FEW030CB FEW080 FEW150 24/20 A2984 RMK CB1ACC1AC1 CB TR ACC TR AC TR CB TOP NE WND ESTD SLP102 DENSI
TY ALT 2100FT=
METAR CYVV 101100Z 14006KT 15SM FEW030TCU FEW150 22/20 A2984 RMK TCU1AC1 TCU TR AC TR TCU TOP NE WND ESTD SLP104 DENSITY ALT 1800FT=

TAF CYVV 101038Z 1011/1023 18005KT P6SM SCT060 TEMPO 1011/1017 BKN060
PROB30 1011/1017 2SM TSRA BR OVC060CB
FM101700 VRB03KT P6SM BKN050 TEMPO 1017/1023 4SM -SHRA BR OVC050
PROB40 1017/1023 2SM +TSRA BR OVC020CB
RMK NXT FCST BY 101400Z=
Your time UTC time
Weather data provided by Environment Canada and NAV CANADA